Time;durP1;ratioP1;P1;durP2;ratioP2;P2;SDS_P1;SDS_P2;PMS_P1;PMS_P2;Temp;Humidity;BMP_temperature;BMP_pressure;BME280_temperature;BME280_humidity;BME280_pressure;Samples;Min_cycle;Max_cycle;Signal;HPM_P1;HPM_P2
2022/03/05 00:01:54;;;;;;;19.75;4.20;;;-2.80;99.90;;;;;;5076174;28;20388;-68
2022/03/05 00:04:20;;;;;;;11.60;4.28;;;-2.70;99.90;;;;;;5076082;28;20033;-68
2022/03/05 00:06:47;;;;;;;16.27;4.07;;;-2.70;99.90;;;;;;5076322;28;20106;-68
2022/03/05 00:09:12;;;;;;;8.73;3.42;;;-2.70;99.90;;;;;;5076023;28;20055;-67
2022/03/05 00:11:38;;;;;;;10.40;3.33;;;-2.60;99.90;;;;;;5075765;28;20060;-67
2022/03/05 00:14:05;;;;;;;9.63;3.20;;;-2.50;99.90;;;;;;5075869;28;20024;-67
2022/03/05 00:16:30;;;;;;;21.92;3.80;;;-2.50;99.90;;;;;;5075897;28;20051;-67
2022/03/05 00:18:56;;;;;;;25.20;3.88;;;-2.40;99.90;;;;;;5075867;28;20048;-67
2022/03/05 00:21:21;;;;;;;11.20;3.65;;;-2.40;99.90;;;;;;5076235;28;20024;-67
2022/03/05 00:23:47;;;;;;;8.98;3.80;;;-2.30;99.90;;;;;;5074987;28;20111;-67
2022/03/05 00:26:13;;;;;;;12.10;3.55;;;-2.30;99.90;;;;;;5075841;28;20036;-67
2022/03/05 00:28:38;;;;;;;12.18;4.05;;;-2.20;99.90;;;;;;5075662;28;20027;-67
2022/03/05 00:31:04;;;;;;;15.13;4.38;;;-2.20;99.90;;;;;;5075580;28;20108;-67
2022/03/05 00:33:30;;;;;;;17.98;4.05;;;-2.10;99.90;;;;;;5075740;28;20104;-67
2022/03/05 00:35:55;;;;;;;17.00;4.70;;;-2.20;99.90;;;;;;5076067;28;20051;-68
2022/03/05 00:38:21;;;;;;;16.00;3.90;;;-2.20;99.90;;;;;;5075444;28;20463;-68
2022/03/05 00:40:47;;;;;;;17.27;4.28;;;-2.10;99.90;;;;;;5075404;28;20050;-68
2022/03/05 00:43:13;;;;;;;12.20;4.30;;;-2.10;99.90;;;;;;5075373;28;20388;-68
2022/03/05 00:45:39;;;;;;;18.42;3.83;;;-2.00;99.90;;;;;;5075371;28;20025;-68
2022/03/05 00:48:04;;;;;;;14.70;3.58;;;-2.10;99.90;;;;;;5075305;28;20536;-68
2022/03/05 00:50:30;;;;;;;13.30;4.55;;;-2.10;99.90;;;;;;5075149;28;20029;-68
2022/03/05 00:52:56;;;;;;;20.27;4.28;;;-2.20;99.90;;;;;;5075428;28;20098;-68
2022/03/05 00:55:21;;;;;;;9.65;3.55;;;-2.00;99.90;;;;;;5075107;28;20020;-67
2022/03/05 00:57:47;;;;;;;10.60;3.88;;;-2.00;99.90;;;;;;5075306;28;20055;-67
2022/03/05 01:00:13;;;;;;;21.95;5.80;;;-2.00;99.90;;;;;;5074954;28;20469;-67
2022/03/05 01:02:39;;;;;;;25.25;4.45;;;-2.00;99.90;;;;;;5074020;28;20115;-67
2022/03/05 01:05:05;;;;;;;24.00;6.35;;;-2.00;99.90;;;;;;5074922;28;20507;-68
2022/03/05 01:07:31;;;;;;;12.57;4.13;;;-2.00;99.90;;;;;;5075005;28;20028;-67
2022/03/05 01:09:56;;;;;;;15.63;3.80;;;-2.00;99.90;;;;;;5074652;28;20400;-67
2022/03/05 01:12:22;;;;;;;21.73;4.10;;;-2.00;99.90;;;;;;5074724;28;20107;-67
2022/03/05 01:14:48;;;;;;;10.15;3.58;;;-2.00;99.90;;;;;;5074709;28;20095;-67
2022/03/05 01:17:14;;;;;;;22.48;5.43;;;-2.10;99.90;;;;;;5074763;28;20461;-67
2022/03/05 01:19:40;;;;;;;12.43;4.25;;;-2.10;99.90;;;;;;5074593;28;20024;-67
2022/03/05 01:22:05;;;;;;;12.70;4.45;;;-2.10;99.90;;;;;;5074865;28;20409;-67
2022/03/05 01:24:31;;;;;;;21.52;4.00;;;-2.10;99.90;;;;;;5074489;28;20028;-67
2022/03/05 01:26:57;;;;;;;18.83;3.85;;;-2.10;99.90;;;;;;5074496;28;20016;-67
2022/03/05 01:29:22;;;;;;;20.85;4.45;;;-2.20;99.90;;;;;;5074415;28;20602;-68
2022/03/05 01:31:48;;;;;;;19.08;3.25;;;-2.20;99.90;;;;;;5074428;28;20025;-68
2022/03/05 01:34:14;;;;;;;8.60;3.90;;;-2.30;99.90;;;;;;5074292;28;20071;-67
2022/03/05 01:36:39;;;;;;;9.63;3.65;;;-2.30;99.90;;;;;;5073343;28;20027;-67
2022/03/05 01:39:05;;;;;;;14.25;3.45;;;-2.30;99.90;;;;;;5073050;28;20054;-67
2022/03/05 01:41:31;;;;;;;11.57;3.13;;;-2.30;99.90;;;;;;5074275;28;20020;-67
2022/03/05 01:43:56;;;;;;;8.75;3.80;;;-2.30;99.90;;;;;;5074497;28;20508;-67
2022/03/05 01:46:30;;;;;;;16.80;4.03;;;-2.30;99.90;;;;;;5074414;28;20029;-68
2022/03/05 01:48:55;;;;;;;;;;;-2.30;99.90;;;;;;5074481;28;20063;-67
2022/03/05 01:51:21;;;;;;;16.38;3.95;;;-2.40;99.90;;;;;;5074011;28;19940;-67
2022/03/05 01:53:47;;;;;;;6.18;3.10;;;-2.50;99.90;;;;;;5073959;28;20068;-67
2022/03/05 01:56:13;;;;;;;16.73;3.70;;;-2.50;99.90;;;;;;5073936;28;20121;-67
2022/03/05 01:58:39;;;;;;;11.30;3.75;;;-2.60;99.90;;;;;;5072647;28;20104;-67
2022/03/05 02:01:04;;;;;;;13.32;2.97;;;-2.60;99.90;;;;;;5073818;28;20099;-67
2022/03/05 02:03:30;;;;;;;11.13;3.35;;;-2.60;99.90;;;;;;5073842;28;20481;-67
2022/03/05 02:05:55;;;;;;;13.50;3.15;;;-2.60;99.90;;;;;;5073814;28;20028;-67
2022/03/05 02:08:21;;;;;;;21.45;3.78;;;-2.60;99.90;;;;;;5073788;28;20025;-68
2022/03/05 02:10:47;;;;;;;27.27;3.88;;;-2.50;99.90;;;;;;5072638;28;20073;-67
2022/03/05 02:13:12;;;;;;;14.23;3.38;;;-2.40;99.90;;;;;;5073707;28;20111;-67
2022/03/05 02:15:38;;;;;;;11.65;3.47;;;-2.30;99.90;;;;;;5074078;28;20461;-67
2022/03/05 02:18:04;;;;;;;8.63;3.15;;;-2.20;99.90;;;;;;5073742;28;20495;-67
2022/03/05 02:20:30;;;;;;;13.57;3.45;;;-2.20;99.90;;;;;;5073580;28;20032;-67
2022/03/05 02:22:55;;;;;;;13.68;3.33;;;-2.20;99.90;;;;;;5073583;28;20067;-67
2022/03/05 02:25:21;;;;;;;14.05;3.05;;;-2.30;99.90;;;;;;5073523;28;20112;-67
2022/03/05 02:27:46;;;;;;;12.75;3.53;;;-2.40;99.90;;;;;;5073823;28;20037;-67
2022/03/05 02:30:12;;;;;;;13.07;4.20;;;-2.40;99.90;;;;;;5073411;28;20107;-67
2022/03/05 02:32:38;;;;;;;16.60;3.47;;;-2.50;99.90;;;;;;5073988;28;20055;-67
2022/03/05 02:35:04;;;;;;;10.40;3.15;;;-2.50;99.90;;;;;;5073439;28;20020;-67
2022/03/05 02:37:29;;;;;;;10.82;3.50;;;-2.60;99.90;;;;;;5073421;28;20023;-67
2022/03/05 02:39:55;;;;;;;13.30;3.97;;;-2.60;99.90;;;;;;5073592;28;20407;-67
2022/03/05 02:42:20;;;;;;;16.98;3.58;;;-2.60;99.90;;;;;;5073367;28;20056;-67
2022/03/05 02:44:46;;;;;;;8.18;2.95;;;-2.60;99.90;;;;;;5073658;28;20024;-67
2022/03/05 02:47:12;;;;;;;16.65;3.50;;;-2.70;99.90;;;;;;5072948;28;20539;-67
2022/03/05 02:49:38;;;;;;;13.02;3.05;;;-2.70;99.90;;;;;;5073237;28;20021;-67
2022/03/05 02:52:04;;;;;;;12.70;3.38;;;-2.80;99.90;;;;;;5073449;28;20108;-67
2022/03/05 02:54:30;;;;;;;14.13;2.83;;;-2.80;99.90;;;;;;5073214;28;20099;-67
2022/03/05 02:56:55;;;;;;;14.85;3.60;;;-2.90;99.90;;;;;;5073262;28;20066;-67
2022/03/05 02:59:21;;;;;;;8.48;2.95;;;-2.90;99.90;;;;;;5073147;28;20020;-67
2022/03/05 03:01:47;;;;;;;9.27;3.00;;;-2.90;99.90;;;;;;5073185;28;20027;-67
2022/03/05 03:04:13;;;;;;;10.77;2.80;;;-3.00;99.90;;;;;;5073221;28;20028;-67
2022/03/05 03:06:38;;;;;;;9.40;3.15;;;-3.00;99.90;;;;;;5073187;28;20024;-68
2022/03/05 03:09:04;;;;;;;7.82;2.53;;;-3.00;99.90;;;;;;5073108;28;20017;-68
2022/03/05 03:11:29;;;;;;;10.43;3.03;;;-3.10;99.90;;;;;;5073356;28;20131;-68
2022/03/05 03:13:55;;;;;;;8.25;2.33;;;-3.10;99.90;;;;;;5073289;28;20032;-68
2022/03/05 03:16:20;;;;;;;12.40;2.95;;;-3.10;99.90;;;;;;5073062;28;20027;-68
2022/03/05 03:18:47;;;;;;;6.65;2.45;;;-3.20;99.90;;;;;;5073027;28;20494;-67
2022/03/05 03:21:12;;;;;;;6.68;2.80;;;-3.20;99.90;;;;;;5072963;28;20024;-67
2022/03/05 03:23:38;;;;;;;10.35;2.80;;;-3.20;99.90;;;;;;5073009;28;20031;-67
2022/03/05 03:26:03;;;;;;;5.03;2.55;;;-3.30;99.90;;;;;;5072978;28;20024;-67
2022/03/05 03:28:29;;;;;;;5.60;1.88;;;-3.30;99.90;;;;;;5072962;28;20028;-68
2022/03/05 03:30:55;;;;;;;6.65;2.83;;;-3.40;99.90;;;;;;5072844;28;20020;-68
2022/03/05 03:33:20;;;;;;;13.48;2.65;;;-3.40;99.90;;;;;;5072833;28;20029;-67
2022/03/05 03:35:46;;;;;;;6.72;2.13;;;-3.40;99.90;;;;;;5073127;28;20376;-67
2022/03/05 03:38:12;;;;;;;6.28;2.33;;;-3.40;99.90;;;;;;5073173;28;20472;-67
2022/03/05 03:40:37;;;;;;;7.68;2.50;;;-3.40;99.90;;;;;;5072809;28;20400;-67
2022/03/05 03:43:03;;;;;;;11.02;2.67;;;-3.50;99.90;;;;;;5072789;28;20020;-67
2022/03/05 03:45:29;;;;;;;9.52;2.45;;;-3.50;99.90;;;;;;5072805;28;20096;-68
2022/03/05 03:47:54;;;;;;;8.48;2.50;;;-3.50;99.90;;;;;;5072776;28;20060;-67
2022/03/05 03:50:22;;;;;;;7.72;2.63;;;-3.50;99.90;;;;;;5072794;28;20028;-67
2022/03/05 03:52:48;;;;;;;9.45;2.50;;;-3.50;99.90;;;;;;5072948;28;20028;-67
2022/03/05 03:55:19;;;;;;;11.23;2.58;;;-3.50;99.90;;;;;;5072698;28;20021;-67
2022/03/05 03:57:44;;;;;;;15.10;2.53;;;-3.40;99.90;;;;;;5071333;28;20048;-67
2022/03/05 04:00:13;;;;;;;9.27;2.50;;;-3.40;99.90;;;;;;5075445;28;20511;-67
2022/03/05 04:02:38;;;;;;;11.48;2.40;;;-3.40;99.90;;;;;;5076157;28;20021;-67
2022/03/05 04:05:05;;;;;;;15.02;2.72;;;-3.40;99.90;;;;;;5076117;28;20031;-67
2022/03/05 04:10:14;;;;;;;11.00;2.67;;;-3.30;99.90;;;;;;5076264;28;20507;-67
2022/03/05 04:12:40;;;;;;;7.20;2.25;;;-3.30;99.90;;;;;;5075954;28;20028;-67
2022/03/05 04:15:06;;;;;;;11.25;3.13;;;-3.40;99.90;;;;;;5075930;28;20062;-67
2022/03/05 04:17:32;;;;;;;9.10;2.05;;;-3.40;99.90;;;;;;5075787;28;20035;-67
2022/03/05 04:19:58;;;;;;;7.20;2.42;;;-3.50;99.90;;;;;;5074538;28;20020;-67
2022/03/05 04:22:23;;;;;;;13.32;2.00;;;-3.50;99.90;;;;;;5076062;28;20475;-67
2022/03/05 04:24:49;;;;;;;11.45;2.08;;;-3.50;99.90;;;;;;5075742;28;20028;-67
2022/03/05 04:27:15;;;;;;;13.75;2.13;;;-3.60;99.90;;;;;;5075721;28;20025;-67
2022/03/05 04:29:40;;;;;;;5.57;1.98;;;-3.60;99.90;;;;;;5075820;28;20461;-68
2022/03/05 04:32:06;;;;;;;8.77;2.17;;;-3.60;99.90;;;;;;5075565;28;20020;-67
2022/03/05 04:34:32;;;;;;;7.03;2.83;;;-3.70;99.90;;;;;;5075560;28;20107;-67
2022/03/05 04:36:57;;;;;;;14.02;2.17;;;-3.70;99.90;;;;;;5075947;28;20056;-67
2022/03/05 04:39:23;;;;;;;8.88;2.50;;;-3.70;99.90;;;;;;5075562;28;20047;-67
2022/03/05 04:41:49;;;;;;;11.07;2.72;;;-3.70;99.90;;;;;;5075597;28;20392;-67
2022/03/05 04:44:15;;;;;;;14.95;3.00;;;-3.70;99.90;;;;;;5075429;28;20020;-67
2022/03/05 04:46:40;;;;;;;9.90;2.80;;;-3.70;99.90;;;;;;5075310;28;20043;-67
2022/03/05 04:49:06;;;;;;;8.80;2.47;;;-3.60;99.90;;;;;;5075307;28;20099;-67
2022/03/05 04:51:31;;;;;;;7.30;1.73;;;-3.70;99.90;;;;;;5075207;28;20419;-67
2022/03/05 04:53:57;;;;;;;9.63;3.40;;;-3.70;99.90;;;;;;5075180;28;20039;-67
2022/03/05 04:56:23;;;;;;;8.05;1.88;;;-3.70;99.90;;;;;;5075151;28;20017;-67
2022/03/05 04:58:49;;;;;;;6.68;2.33;;;-3.70;99.90;;;;;;5075141;28;20016;-67
2022/03/05 05:01:14;;;;;;;5.13;1.92;;;-3.80;99.90;;;;;;5075075;28;20358;-67
2022/03/05 05:03:40;;;;;;;7.72;2.00;;;-3.80;99.90;;;;;;5074993;28;20028;-67
2022/03/05 05:06:06;;;;;;;13.48;2.28;;;-3.80;99.90;;;;;;5075464;28;20032;-67
2022/03/05 05:08:32;;;;;;;5.72;2.35;;;-3.90;99.90;;;;;;5074542;28;20024;-67
2022/03/05 05:10:58;;;;;;;9.50;2.60;;;-3.90;99.90;;;;;;5074412;28;20032;-67
2022/03/05 05:13:23;;;;;;;12.05;2.40;;;-3.90;99.90;;;;;;5074733;28;20491;-67
2022/03/05 05:15:49;;;;;;;7.38;3.13;;;-3.90;99.90;;;;;;5074772;28;20031;-67
2022/03/05 05:18:15;;;;;;;7.57;1.63;;;-3.90;99.90;;;;;;5074770;28;20366;-67
2022/03/05 05:20:40;;;;;;;9.00;2.15;;;-4.00;99.90;;;;;;5074597;28;20027;-67
2022/03/05 05:23:06;;;;;;;9.00;2.35;;;-4.00;99.90;;;;;;5074809;28;20042;-67
2022/03/05 05:25:32;;;;;;;8.48;1.83;;;-4.00;99.90;;;;;;5074851;28;20477;-67
2022/03/05 05:27:57;;;;;;;7.78;3.03;;;-4.10;99.90;;;;;;5075070;28;20032;-67
2022/03/05 05:30:23;;;;;;;9.52;2.22;;;-4.10;99.90;;;;;;5074700;28;20028;-67
2022/03/05 05:32:49;;;;;;;9.93;2.22;;;-4.10;99.90;;;;;;5074703;28;20392;-67
2022/03/05 05:35:15;;;;;;;11.65;2.42;;;-4.10;99.90;;;;;;5074603;28;20460;-67
2022/03/05 05:37:41;;;;;;;6.80;1.98;;;-4.10;99.90;;;;;;5074342;28;20111;-67
2022/03/05 05:40:07;;;;;;;4.78;1.70;;;-4.10;99.90;;;;;;5074474;28;20107;-68
2022/03/05 05:42:33;;;;;;;5.93;1.80;;;-4.10;99.90;;;;;;5074773;28;20461;-67
2022/03/05 05:44:58;;;;;;;11.93;2.92;;;-4.20;99.90;;;;;;5074235;28;20021;-67
2022/03/05 05:47:24;;;;;;;9.63;2.17;;;-4.10;99.90;;;;;;5074136;28;20021;-67
2022/03/05 05:49:49;;;;;;;4.03;1.48;;;-4.20;99.90;;;;;;5074093;28;20075;-67
2022/03/05 05:52:15;;;;;;;9.30;1.88;;;-4.20;99.90;;;;;;5074068;28;20032;-67
2022/03/05 05:54:40;;;;;;;10.07;2.30;;;-4.20;99.90;;;;;;5073921;28;20056;-67
2022/03/05 05:57:06;;;;;;;2.85;1.60;;;-4.20;99.90;;;;;;5074600;28;20025;-67
2022/03/05 05:59:32;;;;;;;3.95;2.15;;;-4.20;99.90;;;;;;5072622;28;20025;-67
2022/03/05 06:01:58;;;;;;;4.93;1.73;;;-4.20;99.90;;;;;;5074143;28;20028;-67
2022/03/05 06:04:24;;;;;;;6.70;1.90;;;-4.20;99.90;;;;;;5073867;28;20032;-67
2022/03/05 06:06:50;;;;;;;5.70;1.85;;;-4.20;99.90;;;;;;5074084;28;20028;-67
2022/03/05 06:09:15;;;;;;;8.43;2.30;;;-4.10;99.90;;;;;;5073599;28;20039;-67
2022/03/05 06:11:41;;;;;;;8.65;2.35;;;-4.10;99.90;;;;;;5073708;28;20040;-67
2022/03/05 06:14:06;;;;;;;7.25;1.92;;;-4.10;99.90;;;;;;5073724;28;20492;-67
2022/03/05 06:16:32;;;;;;;17.83;2.63;;;-4.10;99.90;;;;;;5074213;28;20412;-67
2022/03/05 06:18:58;;;;;;;5.65;2.30;;;-4.10;99.90;;;;;;5073676;28;20028;-67
2022/03/05 06:21:24;;;;;;;11.52;2.35;;;-4.00;99.90;;;;;;5072943;28;20029;-67
2022/03/05 06:23:49;;;;;;;6.57;2.05;;;-4.00;99.90;;;;;;5073613;28;20027;-67
2022/03/05 06:26:15;;;;;;;4.82;2.00;;;-4.00;99.90;;;;;;5073557;28;20093;-67
2022/03/05 06:28:41;;;;;;;14.38;3.20;;;-3.80;99.90;;;;;;5073584;28;20028;-67
2022/03/05 06:31:06;;;;;;;5.63;2.75;;;-3.80;99.90;;;;;;5073955;28;20059;-67
2022/03/05 06:33:32;;;;;;;7.57;1.75;;;-3.70;99.90;;;;;;5073452;28;20119;-67
2022/03/05 06:35:58;;;;;;;9.68;1.88;;;-3.70;99.90;;;;;;5073483;28;20025;-67
2022/03/05 06:38:23;;;;;;;5.25;2.05;;;-3.70;99.90;;;;;;5073376;28;20469;-67
2022/03/05 06:40:49;;;;;;;9.55;2.38;;;-3.70;99.90;;;;;;5073360;28;20017;-67
2022/03/05 06:43:15;;;;;;;4.95;2.08;;;-3.70;99.90;;;;;;5073737;28;20021;-67
2022/03/05 06:45:41;;;;;;;9.25;2.38;;;-3.70;99.90;;;;;;5073685;28;20369;-67
2022/03/05 06:48:07;;;;;;;7.32;1.75;;;-3.60;99.90;;;;;;5073339;28;20032;-67
2022/03/05 06:50:33;;;;;;;12.20;2.47;;;-3.60;99.90;;;;;;5073295;28;20029;-67
2022/03/05 06:52:59;;;;;;;5.68;2.63;;;-3.60;99.90;;;;;;5073225;28;20130;-67
2022/03/05 06:55:25;;;;;;;8.65;2.67;;;-3.60;99.90;;;;;;5073398;28;20028;-67
2022/03/05 06:57:52;;;;;;;9.20;2.08;;;-3.50;99.90;;;;;;5073365;28;20470;-67
2022/03/05 07:00:18;;;;;;;6.10;2.50;;;-3.50;99.90;;;;;;5073386;28;20031;-67
2022/03/05 07:02:43;;;;;;;9.60;2.47;;;-3.50;99.90;;;;;;5073431;28;20025;-67
2022/03/05 07:05:10;;;;;;;8.45;2.20;;;-3.40;99.90;;;;;;5071940;28;20503;-67
2022/03/05 07:07:36;;;;;;;5.30;2.40;;;-3.40;99.90;;;;;;5073444;28;20403;-67
2022/03/05 07:10:03;;;;;;;9.57;2.45;;;-3.30;99.90;;;;;;5072988;28;20066;-67
2022/03/05 07:12:29;;;;;;;8.20;3.05;;;-3.10;99.90;;;;;;5073052;28;20028;-67
2022/03/05 07:14:54;;;;;;;10.10;3.05;;;-2.90;99.90;;;;;;5073111;28;20045;-67
2022/03/05 07:17:20;;;;;;;5.97;2.80;;;-2.80;99.90;;;;;;5073341;28;20068;-67
2022/03/05 07:19:46;;;;;;;11.10;2.67;;;-2.60;99.90;;;;;;5073079;28;20032;-67
2022/03/05 07:22:12;;;;;;;9.68;2.83;;;-2.50;99.90;;;;;;5073149;28;20029;-67
2022/03/05 07:24:38;;;;;;;11.45;2.53;;;-2.40;99.90;;;;;;5073268;28;20036;-67
2022/03/05 07:27:04;;;;;;;7.90;3.05;;;-2.20;99.90;;;;;;5072982;28;20024;-67
2022/03/05 07:29:30;;;;;;;12.25;5.00;;;-2.00;99.90;;;;;;5073433;28;20029;-67
2022/03/05 07:31:55;;;;;;;9.77;3.28;;;-1.90;99.90;;;;;;5073233;28;20033;-68
2022/03/05 07:34:21;;;;;;;8.35;4.00;;;-1.80;99.90;;;;;;5076180;28;20107;-68
2022/03/05 07:36:47;;;;;;;8.55;3.97;;;-1.60;99.90;;;;;;5076640;28;20027;-68
2022/03/05 07:39:12;;;;;;;14.40;4.95;;;-1.20;99.90;;;;;;5076922;28;20056;-68
2022/03/05 07:41:38;;;;;;;10.70;4.60;;;-0.90;99.90;;;;;;5076503;28;20032;-68
2022/03/05 07:44:07;;;;;;;19.02;4.18;;;-0.40;99.90;;;;;;5076493;28;20024;-68
2022/03/05 07:46:35;;;;;;;10.52;4.55;;;-0.20;99.90;;;;;;5075244;28;20024;-68
2022/03/05 07:49:01;;;;;;;11.45;4.30;;;0.00;99.90;;;;;;5076651;28;20028;-67
2022/03/05 07:51:27;;;;;;;11.52;4.15;;;0.10;99.90;;;;;;5076281;28;20059;-67
2022/03/05 07:53:52;;;;;;;25.85;4.55;;;0.20;99.90;;;;;;5076503;28;20048;-67
2022/03/05 07:56:22;;;;;;;13.15;3.92;;;0.30;99.90;;;;;;5076313;28;20472;-67
2022/03/05 07:58:47;;;;;;;15.25;3.90;;;0.40;99.90;;;;;;5076233;28;20020;-67
2022/03/05 08:01:13;;;;;;;7.53;3.20;;;0.50;99.90;;;;;;5076088;28;20021;-68
2022/03/05 08:03:39;;;;;;;9.38;3.40;;;0.70;99.90;;;;;;5076485;28;20029;-68
2022/03/05 08:06:04;;;;;;;11.65;4.10;;;0.90;99.90;;;;;;5076112;28;20031;-68
2022/03/05 08:08:30;;;;;;;19.20;4.13;;;1.10;99.90;;;;;;5076796;28;20035;-67
2022/03/05 08:10:56;;;;;;;7.90;3.45;;;1.20;99.90;;;;;;5075954;28;20127;-67
2022/03/05 08:13:22;;;;;;;9.88;3.35;;;1.40;99.90;;;;;;5076464;28;20028;-67
2022/03/05 08:15:48;;;;;;;10.73;3.25;;;1.60;99.90;;;;;;5076039;28;20472;-67
2022/03/05 08:18:13;;;;;;;9.25;3.10;;;1.70;99.90;;;;;;5075892;28;20027;-67
2022/03/05 08:20:39;;;;;;;9.00;2.83;;;1.90;99.90;;;;;;5075801;28;20023;-67
2022/03/05 08:23:05;;;;;;;10.82;2.80;;;2.10;99.90;;;;;;5075797;28;20039;-67
2022/03/05 08:25:30;;;;;;;8.20;3.00;;;2.30;99.90;;;;;;5075782;28;20484;-68
2022/03/05 08:27:56;;;;;;;11.30;3.13;;;2.50;99.90;;;;;;5075732;28;20021;-69
2022/03/05 08:30:22;;;;;;;8.77;2.80;;;2.60;99.90;;;;;;5075887;28;20030;-68
2022/03/05 08:32:47;;;;;;;14.32;4.28;;;2.70;99.90;;;;;;5075593;28;20438;-68
2022/03/05 08:35:14;;;;;;;11.75;2.88;;;2.80;99.90;;;;;;5075847;28;20103;-68
2022/03/05 08:37:40;;;;;;;8.10;2.38;;;3.00;99.90;;;;;;5075557;28;20024;-68
2022/03/05 08:40:08;;;;;;;7.85;2.70;;;3.10;99.90;;;;;;5075392;28;20028;-68
2022/03/05 08:42:34;;;;;;;8.80;1.80;;;3.30;99.90;;;;;;5075478;28;20025;-68
2022/03/05 08:45:00;;;;;;;7.10;2.33;;;3.40;99.90;;;;;;5074992;28;20051;-68
2022/03/05 08:47:26;;;;;;;6.25;2.47;;;3.60;99.90;;;;;;5075914;28;20453;-68
2022/03/05 08:49:51;;;;;;;5.47;2.00;;;3.70;99.90;;;;;;5075702;28;20029;-68
2022/03/05 08:52:17;;;;;;;8.75;2.08;;;3.80;99.90;;;;;;5075241;28;20027;-68
2022/03/05 08:54:43;;;;;;;11.43;2.42;;;4.00;99.90;;;;;;5075275;28;20060;-68
2022/03/05 08:57:11;;;;;;;6.25;2.20;;;4.20;99.90;;;;;;5075217;28;20071;-68
2022/03/05 08:59:38;;;;;;;11.82;2.30;;;4.40;99.90;;;;;;5075398;28;20035;-68
2022/03/05 09:02:05;;;;;;;8.65;2.05;;;4.50;99.90;;;;;;5075107;28;20383;-68
2022/03/05 09:04:31;;;;;;;12.15;2.42;;;4.60;99.90;;;;;;5075100;28;20031;-68
2022/03/05 09:06:56;;;;;;;10.50;2.55;;;4.70;99.90;;;;;;5075303;28;20426;-68
2022/03/05 09:09:22;;;;;;;12.88;2.75;;;4.80;99.90;;;;;;5074665;28;20029;-68
2022/03/05 09:11:47;;;;;;;10.43;2.88;;;4.80;99.90;;;;;;5075564;28;20040;-69
2022/03/05 09:14:13;;;;;;;11.88;2.30;;;4.70;99.90;;;;;;5074977;28;20378;-69
2022/03/05 09:16:40;;;;;;;16.10;2.72;;;4.70;99.90;;;;;;5075052;28;20091;-69
2022/03/05 09:19:06;;;;;;;9.63;2.75;;;4.70;99.90;;;;;;5073750;28;20365;-69
2022/03/05 09:21:34;;;;;;;18.85;3.15;;;4.70;99.90;;;;;;5074742;28;20024;-69
2022/03/05 09:24:00;;;;;;;11.32;2.42;;;4.90;99.90;;;;;;5075179;28;20504;-69
2022/03/05 09:26:26;;;;;;;11.98;2.42;;;5.30;99.90;;;;;;5074631;28;20113;-69
2022/03/05 09:28:52;;;;;;;27.45;3.15;;;5.40;99.90;;;;;;5074413;28;20064;-69
2022/03/05 09:31:18;;;;;;;8.75;2.42;;;5.60;99.90;;;;;;5074613;28;20113;-69
2022/03/05 09:33:43;;;;;;;10.65;2.55;;;5.90;99.90;;;;;;5074605;28;20099;-69
2022/03/05 09:36:09;;;;;;;16.25;2.53;;;5.90;99.90;;;;;;5074336;28;20485;-69
2022/03/05 09:38:35;;;;;;;4.55;1.83;;;5.70;99.90;;;;;;5074544;28;20039;-69
2022/03/05 09:41:05;;;;;;;10.98;2.40;;;5.60;99.90;;;;;;5074137;28;20028;-69
2022/03/05 09:43:31;;;;;;;15.25;2.47;;;5.40;99.90;;;;;;5074488;28;20032;-69
2022/03/05 09:45:58;;;;;;;6.95;2.28;;;5.40;99.90;;;;;;5074163;28;20025;-69
2022/03/05 09:48:26;;;;;;;9.10;2.03;;;5.40;99.90;;;;;;5074360;28;20376;-69
2022/03/05 09:50:52;;;;;;;9.38;2.00;;;5.30;99.90;;;;;;5074034;28;20081;-69
2022/03/05 09:53:20;;;;;;;11.60;3.03;;;5.40;99.90;;;;;;5074277;28;20423;-69
2022/03/05 09:55:49;;;;;;;29.75;2.92;;;5.70;99.90;;;;;;5073516;28;20082;-69
2022/03/05 09:58:15;;;;;;;5.47;1.90;;;5.80;99.90;;;;;;5073806;28;20017;-69
2022/03/05 10:00:40;;;;;;;9.13;2.33;;;6.00;99.90;;;;;;5074065;28;20116;-69
2022/03/05 10:03:07;;;;;;;11.50;2.50;;;6.00;99.90;;;;;;5073858;28;20056;-70
2022/03/05 10:05:36;;;;;;;11.93;2.63;;;5.90;99.90;;;;;;5072522;28;20070;-70
2022/03/05 10:08:20;;;;;;;8.27;3.00;;;6.00;99.90;;;;;;5073723;28;20448;-70
2022/03/05 10:10:50;;;;;;;5.88;2.00;;;5.80;99.90;;;;;;5073527;28;20484;-70
2022/03/05 10:13:25;;;;;;;7.43;2.97;;;5.70;99.90;;;;;;5074162;28;20514;-70
2022/03/05 10:15:59;;;;;;;8.55;3.05;;;5.80;99.90;;;;;;5074091;28;20048;-70
2022/03/05 10:18:29;;;;;;;19.75;2.58;;;6.50;99.90;;;;;;5073944;28;20460;-70
2022/03/05 10:20:56;;;;;;;9.82;1.80;;;6.60;99.90;;;;;;5073758;28;20024;-70
2022/03/05 10:23:21;;;;;;;6.18;1.38;;;6.20;99.90;;;;;;5073565;28;20027;-70
2022/03/05 10:25:53;;;;;;;6.85;2.03;;;5.90;99.90;;;;;;5073661;28;20020;-70
2022/03/05 10:28:25;;;;;;;12.98;2.20;;;5.60;99.90;;;;;;5073789;28;20130;-70
2022/03/05 10:30:58;;;;;;;23.02;2.80;;;5.40;99.90;;;;;;5073403;28;20024;-70
2022/03/05 10:33:36;;;;;;;4.50;1.55;;;5.40;99.90;;;;;;5073357;28;20021;-70
2022/03/05 10:36:22;;;;;;;3.78;1.63;;;5.50;99.90;;;;;;5073685;28;20488;-69
2022/03/05 10:38:55;;;;;;;9.02;1.88;;;5.50;99.90;;;;;;5073422;28;20027;-71
2022/03/05 10:41:32;;;;;;;6.17;2.47;;;5.30;99.90;;;;;;5073599;28;20028;-69
2022/03/05 10:44:15;;;;;;;5.45;2.10;;;5.30;99.90;;;;;;5073694;28;20020;-70
2022/03/05 10:46:57;;;;;;;5.22;1.83;;;5.20;99.90;;;;;;5073346;28;20028;-70
2022/03/05 10:49:28;;;;;;;5.45;1.80;;;5.20;99.90;;;;;;5073589;28;20029;-69
2022/03/05 10:51:59;;;;;;;13.65;2.50;;;5.20;99.90;;;;;;5073673;28;20025;-69
2022/03/05 10:54:30;;;;;;;10.35;2.42;;;5.10;99.90;;;;;;5073261;28;20081;-69
2022/03/05 10:57:17;;;;;;;11.90;2.40;;;5.00;99.90;;;;;;5073564;28;20420;-69
2022/03/05 10:59:44;;;;;;;30.70;2.42;;;5.00;99.90;;;;;;5073141;28;20115;-69
2022/03/05 11:02:17;;;;;;;2.08;1.17;;;5.30;99.90;;;;;;5072556;28;20074;-69
2022/03/05 11:04:43;;;;;;;13.10;2.42;;;5.50;99.90;;;;;;5073792;28;20021;-69
2022/03/05 11:07:10;;;;;;;34.25;2.30;;;5.40;99.90;;;;;;5073181;28;20037;-69
2022/03/05 11:09:38;;;;;;;20.73;2.10;;;5.40;99.90;;;;;;5076871;28;20032;-69
2022/03/05 11:12:07;;;;;;;38.42;2.97;;;5.40;99.90;;;;;;5075964;28;20036;-69
2022/03/05 11:14:33;;;;;;;7.03;1.95;;;5.70;99.90;;;;;;5077010;28;20024;-69
2022/03/05 11:16:59;;;;;;;3.50;1.83;;;6.10;99.90;;;;;;5077075;28;20547;-69
2022/03/05 11:19:25;;;;;;;5.80;1.88;;;6.20;99.90;;;;;;5077514;28;20048;-69
2022/03/05 11:21:54;;;;;;;4.95;1.65;;;6.10;99.90;;;;;;5076990;28;20052;-69
2022/03/05 11:24:21;;;;;;;8.35;2.20;;;6.10;99.90;;;;;;5076867;28;20104;-69
2022/03/05 11:26:54;;;;;;;7.97;2.03;;;6.90;99.90;;;;;;5076860;28;20082;-69
2022/03/05 11:29:24;;;;;;;6.97;2.55;;;7.80;99.90;;;;;;5076718;28;20051;-70
2022/03/05 11:31:50;;;;;;;6.88;2.05;;;8.80;99.90;;;;;;5077088;28;20035;-70
2022/03/05 11:34:18;;;;;;;7.10;2.40;;;9.40;99.90;;;;;;5076613;28;20029;-69
2022/03/05 11:36:46;;;;;;;10.02;2.00;;;9.90;99.90;;;;;;5076654;28;20067;-69
2022/03/05 11:39:16;;;;;;;7.13;2.30;;;9.80;99.90;;;;;;5076549;28;20443;-69
2022/03/05 11:42:01;;;;;;;4.63;2.35;;;9.50;99.90;;;;;;5076973;28;20027;-70
2022/03/05 11:44:38;;;;;;;5.82;2.35;;;9.90;99.90;;;;;;5077275;28;20025;-70
2022/03/05 11:47:18;;;;;;;6.65;2.03;;;10.40;99.90;;;;;;5076984;28;20016;-70
2022/03/05 11:49:59;;;;;;;9.43;1.85;;;11.00;99.90;;;;;;5076520;28;20051;-70
2022/03/05 11:52:39;;;;;;;6.53;2.10;;;11.10;99.90;;;;;;5076418;28;20062;-70
2022/03/05 11:55:14;;;;;;;8.82;1.98;;;10.60;99.90;;;;;;5076257;28;20021;-70
2022/03/05 11:58:02;;;;;;;4.65;1.55;;;10.90;99.90;;;;;;5076294;28;20025;-70
2022/03/05 12:00:30;;;;;;;18.67;2.78;;;11.40;99.90;;;;;;5076075;28;20020;-70
2022/03/05 12:03:00;;;;;;;5.93;2.53;;;11.50;99.90;;;;;;5076457;28;20377;-70
2022/03/05 12:05:38;;;;;;;7.18;2.55;;;11.10;99.90;;;;;;5076171;28;20025;-70
2022/03/05 12:08:11;;;;;;;7.75;2.40;;;10.70;99.90;;;;;;5076064;28;20024;-70
2022/03/05 12:10:38;;;;;;;13.52;2.78;;;10.30;99.90;;;;;;5076141;28;20114;-70
2022/03/05 12:13:10;;;;;;;7.70;2.50;;;9.80;99.90;;;;;;5076208;28;20032;-70
2022/03/05 12:15:40;;;;;;;7.00;2.28;;;9.50;99.90;;;;;;5075893;28;20112;-70
2022/03/05 12:18:09;;;;;;;5.97;2.47;;;9.20;99.90;;;;;;5075871;28;20039;-70
2022/03/05 12:20:38;;;;;;;7.35;2.10;;;9.00;99.90;;;;;;5074757;28;20103;-70
2022/03/05 12:23:30;;;;;;;3.30;1.50;;;8.80;99.90;;;;;;5075670;28;20482;-70
2022/03/05 12:26:01;;;;;;;5.43;1.90;;;8.80;99.90;;;;;;5074696;28;20037;-70
2022/03/05 12:28:38;;;;;;;6.90;2.33;;;8.80;99.90;;;;;;5075743;28;20036;-70
2022/03/05 12:31:04;;;;;;;5.25;1.83;;;8.70;99.90;;;;;;5075687;28;20023;-70
2022/03/05 12:33:32;;;;;;;5.30;1.95;;;8.70;99.90;;;;;;5075574;28;20032;-70
2022/03/05 12:35:58;;;;;;;3.22;1.63;;;8.70;99.90;;;;;;5075838;28;20020;-70
2022/03/05 12:38:24;;;;;;;7.97;1.92;;;8.60;99.90;;;;;;5075778;28;20017;-70
2022/03/05 12:40:50;;;;;;;2.92;1.75;;;8.30;99.90;;;;;;5075447;28;20040;-70
2022/03/05 12:43:16;;;;;;;8.23;1.80;;;8.00;99.90;;;;;;5075468;28;20032;-70
2022/03/05 12:45:43;;;;;;;7.07;1.70;;;7.80;99.90;;;;;;5075362;28;20028;-70
2022/03/05 12:48:17;;;;;;;7.28;2.45;;;7.90;99.90;;;;;;5075323;28;20029;-70